createdAt,value
2022-09-28T00:02:35.315Z,8.60
2022-09-28T00:06:37.366Z,8.50
2022-09-28T00:10:39.261Z,8.50
2022-09-28T00:14:42.561Z,8.40
2022-09-28T00:18:45.494Z,8.50
2022-09-28T00:22:47.082Z,8.50
2022-09-28T00:26:56.174Z,8.50
2022-09-28T00:30:58.590Z,8.50
2022-09-28T00:35:00.179Z,8.50
2022-09-28T00:39:06.434Z,8.50
2022-09-28T00:43:20.834Z,8.50
2022-09-28T00:47:41.007Z,8.40
2022-09-28T00:51:43.737Z,8.50
2022-09-28T00:55:50.160Z,8.50
2022-09-28T00:59:52.047Z,8.50
2022-09-28T01:03:54.742Z,8.50
2022-09-28T01:07:56.961Z,8.40
2022-09-28T01:11:58.490Z,8.50
2022-09-28T01:16:08.079Z,8.40
2022-09-28T01:20:15.724Z,8.40
2022-09-28T01:24:52.823Z,8.40
2022-09-28T01:28:59.466Z,8.30
2022-09-28T01:33:09.523Z,8.30
2022-09-28T01:37:13.062Z,8.30
2022-09-28T01:41:17.474Z,8.40
2022-09-28T01:45:23.565Z,8.40
2022-09-28T01:49:31.612Z,8.40
2022-09-28T01:53:37.123Z,8.40
2022-09-28T01:57:48.708Z,8.40
2022-09-28T02:02:13.725Z,8.40
2022-09-28T02:06:18.450Z,8.40
2022-09-28T02:10:22.390Z,8.40
2022-09-28T02:14:25.384Z,8.30
2022-09-28T02:18:26.920Z,8.30
2022-09-28T02:22:29.128Z,8.20
2022-09-28T02:26:32.414Z,8.30
2022-09-28T02:30:35.785Z,8.30
2022-09-28T02:34:37.439Z,8.20
2022-09-28T02:38:39.177Z,8.20
2022-09-28T02:42:48.593Z,8.20
2022-09-28T02:46:56.707Z,8.20
2022-09-28T02:51:17.075Z,8.20
2022-09-28T02:55:37.501Z,8.10
2022-09-28T02:59:45.167Z,8.20
2022-09-28T03:03:55.930Z,8.10
2022-09-28T03:08:06.056Z,8.10
2022-09-28T03:12:09.897Z,8.00
2022-09-28T03:16:13.213Z,8.00
2022-09-28T03:20:14.926Z,8.00
2022-09-28T03:24:16.472Z,7.90
2022-09-28T03:28:18.009Z,7.90
2022-09-28T03:32:19.517Z,7.90
2022-09-28T03:36:21.081Z,7.80
2022-09-28T03:40:24.219Z,7.70
2022-09-28T03:44:25.754Z,7.80
2022-09-28T03:48:32.916Z,7.70
2022-09-28T03:52:35.153Z,7.70
2022-09-28T03:56:36.670Z,7.70
2022-09-28T04:00:38.605Z,7.70
2022-09-28T04:04:40.189Z,7.70
2022-09-28T04:08:43.346Z,7.70
2022-09-28T04:12:46.232Z,7.80
2022-09-28T04:16:48.177Z,7.80
2022-09-28T04:21:08.902Z,7.80
2022-09-28T04:25:11.238Z,7.80
2022-09-28T04:29:15.930Z,7.80
2022-09-28T04:33:17.462Z,7.80
2022-09-28T04:37:19.287Z,7.90
2022-09-28T04:41:22.321Z,7.80
2022-09-28T04:45:27.021Z,7.80
2022-09-28T04:49:28.728Z,7.80
2022-09-28T04:53:30.560Z,7.90
2022-09-28T04:57:35.453Z,7.90
2022-09-28T05:01:37.708Z,7.90
2022-09-28T05:05:43.453Z,7.90
2022-09-28T05:09:45.011Z,7.80
2022-09-28T05:13:48.373Z,7.70
2022-09-28T05:17:52.199Z,7.80
2022-09-28T05:21:54.169Z,7.60
2022-09-28T05:25:55.799Z,7.60
2022-09-28T05:29:57.493Z,7.60
2022-09-28T05:33:59.035Z,7.70
2022-09-28T05:38:05.359Z,7.70
2022-09-28T05:42:07.930Z,7.70
2022-09-28T05:46:09.536Z,7.70
2022-09-28T05:50:11.908Z,7.80
2022-09-28T05:54:13.523Z,7.80
2022-09-28T05:58:15.160Z,7.80
2022-09-28T06:02:16.829Z,7.90
2022-09-28T06:06:18.463Z,7.90
2022-09-28T06:10:19.998Z,7.90
2022-09-28T06:14:21.624Z,8.00
2022-09-28T06:18:23.237Z,7.90
2022-09-28T06:22:24.887Z,8.00
2022-09-28T06:26:26.589Z,8.10
2022-09-28T06:30:29.077Z,8.10
2022-09-28T06:34:30.666Z,8.20
2022-09-28T06:38:32.254Z,8.20
2022-09-28T06:42:33.846Z,8.30
2022-09-28T06:46:35.572Z,8.40
2022-09-28T06:50:38.388Z,8.50
2022-09-28T06:54:39.950Z,8.50
2022-09-28T06:58:41.557Z,8.60
2022-09-28T07:02:43.208Z,8.60
2022-09-28T07:06:48.120Z,8.60
2022-09-28T07:10:50.139Z,8.60
2022-09-28T07:14:56.425Z,8.70
2022-09-28T07:18:58.000Z,8.70
2022-09-28T07:23:11.224Z,8.70
2022-09-28T07:27:17.858Z,8.80
2022-09-28T07:31:19.695Z,8.80
2022-09-28T07:35:22.182Z,8.80
2022-09-28T07:39:23.788Z,9.00
2022-09-28T07:43:25.455Z,9.00
2022-09-28T07:47:32.229Z,9.00
2022-09-28T07:51:34.133Z,9.10
2022-09-28T07:55:35.704Z,9.10
2022-09-28T07:59:37.362Z,9.10
2022-09-28T08:03:38.934Z,9.40
2022-09-28T08:07:40.798Z,9.30
2022-09-28T08:11:43.826Z,9.60
2022-09-28T08:15:46.425Z,9.60
2022-09-28T08:20:07.024Z,9.70
2022-09-28T08:24:08.637Z,9.70
2022-09-28T08:28:10.221Z,9.80
2022-09-28T08:32:11.767Z,9.90
2022-09-28T08:36:13.434Z,9.90
2022-09-28T08:40:18.231Z,10.00
2022-09-28T08:44:25.749Z,10.00
2022-09-28T08:49:13.394Z,10.00
2022-09-28T08:53:33.142Z,10.10
2022-09-28T08:57:41.931Z,10.40
2022-09-28T09:01:50.790Z,10.10
2022-09-28T09:06:00.365Z,10.30
2022-09-28T09:10:18.618Z,10.40
2022-09-28T09:14:39.010Z,10.50
2022-09-28T09:18:46.743Z,10.50
2022-09-28T09:22:57.833Z,10.60
2022-09-28T09:27:06.852Z,10.60
2022-09-28T09:31:20.696Z,11.10
2022-09-28T09:35:45.110Z,10.80
2022-09-28T09:40:09.040Z,11.00
2022-09-28T09:44:29.258Z,10.90
2022-09-28T09:48:39.888Z,11.00
2022-09-28T09:52:47.079Z,10.90
2022-09-28T09:56:54.911Z,10.90
2022-09-28T10:00:59.517Z,11.20
2022-09-28T10:05:21.460Z,11.80
2022-09-28T10:09:24.895Z,12.00
2022-09-28T10:13:26.434Z,11.40
2022-09-28T10:17:28.097Z,11.50
2022-09-28T10:21:30.199Z,11.60
2022-09-28T10:25:33.573Z,11.60
2022-09-28T10:29:49.548Z,11.70
2022-09-28T10:33:53.232Z,11.90
2022-09-28T10:37:57.262Z,12.00
2022-09-28T10:41:59.879Z,12.40
2022-09-28T10:46:04.569Z,12.20
2022-09-28T10:50:14.228Z,11.90
2022-09-28T10:54:17.104Z,12.10
2022-09-28T10:58:27.138Z,11.80
2022-09-28T11:02:36.276Z,11.80
2022-09-28T11:06:39.562Z,11.90
2022-09-28T11:10:41.686Z,11.80
2022-09-28T11:14:44.259Z,12.20
2022-09-28T11:18:45.909Z,12.20
2022-09-28T11:22:51.710Z,12.80
2022-09-28T11:27:00.147Z,13.40
2022-09-28T11:31:02.364Z,13.30
2022-09-28T11:35:04.597Z,13.00
2022-09-28T11:39:12.035Z,13.00
2022-09-28T11:43:18.848Z,12.80
2022-09-28T11:47:37.550Z,12.60
2022-09-28T11:51:41.169Z,12.60
2022-09-28T11:55:48.796Z,12.50
2022-09-28T11:59:57.851Z,12.60
2022-09-28T12:04:02.777Z,12.80
2022-09-28T12:08:17.074Z,12.50
2022-09-28T12:12:30.259Z,12.30
2022-09-28T12:21:20.230Z,12.30
2022-09-28T12:25:23.052Z,12.20
2022-09-28T12:29:28.246Z,12.20
2022-09-28T12:33:29.853Z,12.20
2022-09-28T12:37:37.552Z,12.50
2022-09-28T12:41:39.207Z,12.40
2022-09-28T12:46:09.946Z,12.50
2022-09-28T12:54:54.972Z,12.40
2022-09-28T12:59:05.090Z,12.40
2022-09-28T13:03:13.717Z,12.20
2022-09-28T13:07:19.993Z,12.30
2022-09-28T13:11:33.088Z,12.30
2022-09-28T13:15:41.311Z,12.10
2022-09-28T13:19:45.724Z,12.10
2022-09-28T13:23:48.402Z,12.30
2022-09-28T13:28:04.177Z,12.40
2022-09-28T13:32:08.104Z,12.40
2022-09-28T13:36:34.656Z,12.50
2022-09-28T13:40:59.422Z,12.40
2022-09-28T13:45:09.497Z,12.50
2022-09-28T13:49:17.254Z,12.50
2022-09-28T13:53:28.325Z,12.80
2022-09-28T13:57:34.601Z,13.20
2022-09-28T14:01:40.926Z,13.00
2022-09-28T14:05:46.454Z,13.20
2022-09-28T14:09:48.529Z,13.30
2022-09-28T14:14:02.473Z,13.30
2022-09-28T14:18:20.566Z,13.20
2022-09-28T14:22:30.041Z,13.50
2022-09-28T14:26:52.523Z,13.60
2022-09-28T14:30:58.283Z,13.60
2022-09-28T14:35:03.761Z,13.60
2022-09-28T14:39:24.100Z,13.70
2022-09-28T14:43:58.539Z,13.80
2022-09-28T14:48:04.695Z,13.70
2022-09-28T14:52:10.558Z,13.40
2022-09-28T14:56:12.410Z,13.60
2022-09-28T15:00:20.932Z,13.70
2022-09-28T15:04:24.116Z,13.60
2022-09-28T15:08:35.233Z,13.30
2022-09-28T15:12:37.552Z,13.40
2022-09-28T15:16:39.178Z,13.30
2022-09-28T15:20:41.939Z,13.10
2022-09-28T15:25:02.018Z,13.00
2022-09-28T15:29:16.328Z,12.90
2022-09-28T15:33:42.992Z,12.90
2022-09-28T15:37:45.090Z,12.80
2022-09-28T15:41:53.543Z,13.00
2022-09-28T15:46:16.219Z,12.90
2022-09-28T15:50:21.252Z,12.80
2022-09-28T15:54:24.854Z,12.50
2022-09-28T15:58:27.440Z,12.20
2022-09-28T16:02:29.687Z,12.10
2022-09-28T16:06:32.184Z,12.00
2022-09-28T16:10:34.570Z,11.70
2022-09-28T16:14:36.275Z,11.60
2022-09-28T16:18:40.047Z,11.60
2022-09-28T16:22:43.003Z,11.70
2022-09-28T16:26:44.707Z,11.40
2022-09-28T16:30:59.829Z,11.60
2022-09-28T16:35:07.745Z,11.40
2022-09-28T16:39:11.773Z,11.30
2022-09-28T16:43:18.189Z,11.30
2022-09-28T16:47:20.338Z,11.20
2022-09-28T16:51:22.697Z,11.20
2022-09-28T16:55:39.993Z,11.10
2022-09-28T16:59:42.850Z,11.10
2022-09-28T17:03:54.888Z,11.00
2022-09-28T17:08:02.942Z,11.00
2022-09-28T17:12:20.515Z,11.00
2022-09-28T17:16:43.055Z,11.00
2022-09-28T17:20:59.921Z,10.90
2022-09-28T17:25:07.267Z,10.90
2022-09-28T17:29:15.979Z,10.90
2022-09-28T17:33:17.739Z,10.90
2022-09-28T17:37:19.444Z,10.80
2022-09-28T17:41:22.718Z,10.70
2022-09-28T17:45:28.555Z,10.70
2022-09-28T17:49:54.165Z,10.60
2022-09-28T17:54:06.202Z,10.70
2022-09-28T17:58:18.499Z,10.60
2022-09-28T18:02:23.016Z,10.80
2022-09-28T18:06:27.701Z,10.70
2022-09-28T18:10:30.816Z,10.70
2022-09-28T18:14:32.440Z,10.70
2022-09-28T18:18:37.680Z,10.70
2022-09-28T18:22:39.260Z,10.70
2022-09-28T18:26:40.870Z,10.70
2022-09-28T18:30:44.179Z,10.60
2022-09-28T18:34:46.265Z,10.60
2022-09-28T18:38:49.262Z,10.60
2022-09-28T18:42:51.217Z,10.50
2022-09-28T18:46:53.275Z,10.50
2022-09-28T18:50:54.886Z,10.50
2022-09-28T18:54:56.582Z,10.50
2022-09-28T18:59:01.432Z,10.50
2022-09-28T19:03:03.121Z,10.50
2022-09-28T19:07:07.376Z,10.50
2022-09-28T19:11:14.755Z,10.50
2022-09-28T19:15:17.023Z,10.50
2022-09-28T19:19:19.427Z,10.40
2022-09-28T19:23:24.374Z,10.40
2022-09-28T19:27:36.512Z,10.40
2022-09-28T19:31:38.502Z,10.40
2022-09-28T19:35:40.095Z,10.30
2022-09-28T19:39:41.770Z,10.40
2022-09-28T19:43:44.183Z,10.30
2022-09-28T19:48:02.836Z,10.30
2022-09-28T19:52:17.577Z,10.20
2022-09-28T19:56:23.090Z,10.20
2022-09-28T20:00:24.793Z,10.20
2022-09-28T20:04:26.934Z,10.30
2022-09-28T20:08:31.371Z,10.30
2022-09-28T20:12:45.666Z,10.20
2022-09-28T20:16:53.789Z,10.10
2022-09-28T20:21:10.391Z,10.20
2022-09-28T20:25:14.779Z,10.10
2022-09-28T20:29:16.472Z,10.20
2022-09-28T20:33:29.152Z,10.20
2022-09-28T20:37:34.151Z,10.20
2022-09-28T20:41:36.707Z,10.20
2022-09-28T20:45:40.832Z,10.10
2022-09-28T20:49:42.829Z,10.20
2022-09-28T20:53:50.235Z,10.10
2022-09-28T20:57:51.896Z,10.20
2022-09-28T21:01:53.547Z,10.20
2022-09-28T21:05:55.629Z,10.10
2022-09-28T21:09:57.992Z,10.00
2022-09-28T21:14:01.690Z,10.00
2022-09-28T21:18:03.525Z,9.90
2022-09-28T21:22:05.110Z,9.80
2022-09-28T21:26:10.774Z,9.80
2022-09-28T21:30:12.549Z,9.80
2022-09-28T21:34:15.428Z,9.60
2022-09-28T21:38:17.018Z,9.50
2022-09-28T21:42:18.598Z,9.50
2022-09-28T21:46:20.299Z,9.40
2022-09-28T21:50:22.752Z,9.30
2022-09-28T21:54:24.309Z,9.40
2022-09-28T21:58:27.565Z,9.20
2022-09-28T22:02:30.660Z,9.10
2022-09-28T22:06:32.254Z,9.00
2022-09-28T22:10:33.839Z,8.90
2022-09-28T22:14:35.383Z,8.90
2022-09-28T22:18:37.093Z,8.90
2022-09-28T22:22:38.682Z,9.00
2022-09-28T22:26:40.433Z,8.90
2022-09-28T22:30:42.063Z,8.90
2022-09-28T22:34:43.664Z,8.90
2022-09-28T22:38:45.616Z,8.90
2022-09-28T22:42:47.115Z,9.00
2022-09-28T22:46:48.719Z,9.00
2022-09-28T22:50:50.674Z,8.90
2022-09-28T22:54:53.312Z,8.90
2022-09-28T22:58:54.992Z,9.00
2022-09-28T23:02:56.584Z,9.00
2022-09-28T23:06:58.412Z,9.00
2022-09-28T23:11:02.386Z,9.00
2022-09-28T23:15:04.373Z,8.80
2022-09-28T23:19:06.721Z,8.70
2022-09-28T23:23:10.490Z,8.50
2022-09-28T23:27:14.349Z,8.50
2022-09-28T23:31:17.749Z,8.50
2022-09-28T23:35:24.572Z,8.50
2022-09-28T23:39:39.486Z,8.50
2022-09-28T23:43:44.216Z,8.50
2022-09-28T23:47:45.931Z,8.50
2022-09-28T23:56:09.668Z,8.50
